Time;durP1;ratioP1;P1;durP2;ratioP2;P2;SDS_P1;SDS_P2;PMS_P1;PMS_P2;Temp;Humidity;BMP_temperature;BMP_pressure;BME280_temperature;BME280_humidity;BME280_pressure;Samples;Min_cycle;Max_cycle;Signal;HPM_P1;HPM_P2
2022/08/02 00:01:30;;;;;;;3.15;1.70;;;15.30;99.90;;;;;;5069182;28;20393;-58
2022/08/02 00:03:56;;;;;;;1.77;1.40;;;15.20;99.90;;;;;;5048603;28;20033;-45
2022/08/02 00:06:21;;;;;;;2.33;1.90;;;15.20;99.90;;;;;;5069033;28;20028;-58
2022/08/02 00:08:47;;;;;;;3.47;1.67;;;15.20;99.90;;;;;;5048472;28;20049;-58
2022/08/02 00:11:12;;;;;;;3.35;1.80;;;15.20;99.90;;;;;;5068791;28;20110;-58
2022/08/02 00:13:38;;;;;;;2.03;1.67;;;15.20;99.90;;;;;;5052302;28;20101;-58
2022/08/02 00:16:04;;;;;;;3.03;1.67;;;15.10;99.90;;;;;;5050297;28;20056;-58
2022/08/02 00:18:29;;;;;;;1.58;1.48;;;15.10;99.90;;;;;;5066835;28;20024;-58
2022/08/02 00:20:55;;;;;;;1.83;1.50;;;15.00;99.90;;;;;;5049995;28;20052;-58
2022/08/02 00:23:20;;;;;;;2.05;1.83;;;15.00;99.90;;;;;;5066706;28;20028;-58
2022/08/02 00:25:46;;;;;;;3.10;1.80;;;15.00;99.90;;;;;;5049917;28;20021;-58
2022/08/02 00:28:12;;;;;;;2.53;1.70;;;15.00;99.90;;;;;;5066881;28;20481;-58
2022/08/02 00:30:37;;;;;;;2.58;1.70;;;14.90;99.90;;;;;;5069425;28;20020;-58
2022/08/02 00:33:04;;;;;;;2.22;1.73;;;14.90;99.90;;;;;;5052995;28;20111;-58
2022/08/02 00:35:30;;;;;;;2.00;1.80;;;14.90;99.90;;;;;;5069401;28;20024;-58
2022/08/02 00:37:56;;;;;;;4.60;1.63;;;14.80;99.90;;;;;;5051521;28;20036;-58
2022/08/02 00:40:22;;;;;;;2.65;2.00;;;14.80;99.90;;;;;;5069199;28;20077;-58
2022/08/02 00:43:05;;;;;;;3.55;1.90;;;14.80;99.90;;;;;;5050456;28;20504;-58
2022/08/02 00:45:31;;;;;;;1.67;1.58;;;14.80;99.90;;;;;;5069395;28;20032;-58
2022/08/02 00:47:57;;;;;;;2.08;1.65;;;14.80;99.90;;;;;;5051427;28;20028;-58
2022/08/02 00:50:22;;;;;;;1.75;1.55;;;14.90;99.90;;;;;;5055072;28;20044;-58
2022/08/02 00:52:48;;;;;;;3.13;2.03;;;14.90;99.90;;;;;;5066465;28;20399;-58
2022/08/02 00:55:13;;;;;;;3.65;2.00;;;14.90;99.90;;;;;;5069232;28;20017;-59
2022/08/02 00:57:38;;;;;;;2.50;2.30;;;15.00;99.90;;;;;;5048590;28;20575;-58
2022/08/02 01:00:05;;;;;;;2.20;2.00;;;15.00;99.90;;;;;;5069056;28;20469;-58
2022/08/02 01:02:31;;;;;;;3.17;2.42;;;15.10;99.90;;;;;;5049301;28;20570;-58
2022/08/02 01:04:56;;;;;;;4.88;2.72;;;15.00;99.90;;;;;;5067246;28;20040;-59
2022/08/02 01:07:22;;;;;;;2.85;2.25;;;15.10;99.90;;;;;;5049488;28;20113;-58
2022/08/02 01:09:47;;;;;;;1.98;1.77;;;15.10;99.90;;;;;;5048346;28;20029;-58
2022/08/02 01:12:13;;;;;;;2.45;2.00;;;15.10;99.90;;;;;;5072555;28;20028;-58
2022/08/02 01:14:41;;;;;;;1.42;1.33;;;15.10;99.90;;;;;;5045323;28;20029;-58
2022/08/02 01:17:11;;;;;;;2.03;1.83;;;15.20;99.90;;;;;;5072731;28;20496;-58
2022/08/02 01:20:01;;;;;;;3.05;1.95;;;15.10;99.90;;;;;;5051028;28;20569;-58
2022/08/02 01:22:56;;;;;;;2.58;2.17;;;15.20;99.90;;;;;;5032909;28;20036;-58
2022/08/02 01:25:46;;;;;;;3.28;2.10;;;15.20;99.90;;;;;;5032942;28;20539;-58
2022/08/02 01:28:45;;;;;;;1.85;1.75;;;15.20;99.90;;;;;;5040518;28;20107;-58
2022/08/02 01:31:29;;;;;;;4.13;2.55;;;15.30;99.90;;;;;;5073003;28;20016;-59
2022/08/02 01:34:32;;;;;;;2.53;1.83;;;15.30;99.90;;;;;;5051850;28;20048;-58
2022/08/02 01:37:08;;;;;;;2.15;1.95;;;15.40;99.90;;;;;;5053168;28;20219;-58
2022/08/02 01:39:37;;;;;;;3.63;1.70;;;15.40;99.90;;;;;;5046310;28;20095;-58
2022/08/02 01:42:04;;;;;;;2.83;2.20;;;15.40;99.90;;;;;;5072239;28;20287;-58
2022/08/02 01:44:33;;;;;;;1.92;1.77;;;15.40;99.90;;;;;;5051003;28;20481;-58
2022/08/02 01:47:03;;;;;;;2.38;2.03;;;15.50;99.90;;;;;;5072121;28;20090;-59
2022/08/02 01:49:31;;;;;;;1.90;1.80;;;15.50;99.90;;;;;;5051717;28;20037;-59
2022/08/02 01:54:44;;;;;;;;;;;15.50;99.90;;;;;;5047602;28;20574;-58
2022/08/02 01:57:12;;;;;;;2.05;1.90;;;15.60;99.90;;;;;;5071487;28;19912;-59
2022/08/02 01:59:41;;;;;;;3.00;1.90;;;15.60;99.90;;;;;;5050718;28;20033;-58
2022/08/02 02:02:08;;;;;;;3.45;2.30;;;15.60;99.90;;;;;;5071734;28;20111;-59
2022/08/02 02:04:35;;;;;;;3.42;1.65;;;15.60;99.90;;;;;;5050678;28;20033;-58
2022/08/02 02:07:02;;;;;;;2.53;1.95;;;15.60;99.90;;;;;;5071345;28;20025;-58
2022/08/02 02:09:30;;;;;;;2.05;1.95;;;15.60;99.90;;;;;;5050445;28;20090;-58
2022/08/02 02:11:58;;;;;;;2.55;1.95;;;15.60;99.90;;;;;;5070109;28;20040;-58
2022/08/02 02:14:25;;;;;;;3.15;1.88;;;15.60;99.90;;;;;;5043926;28;20036;-59
2022/08/02 02:16:52;;;;;;;2.85;2.13;;;15.70;99.90;;;;;;5071242;28;20484;-58
2022/08/02 02:19:19;;;;;;;3.63;2.50;;;15.70;99.90;;;;;;5050244;28;20029;-58
2022/08/02 02:21:45;;;;;;;2.38;1.83;;;15.70;99.90;;;;;;5069803;28;20157;-58
2022/08/02 02:24:10;;;;;;;2.20;1.85;;;15.70;99.90;;;;;;5050343;28;20123;-58
2022/08/02 02:26:37;;;;;;;5.05;2.38;;;15.70;99.90;;;;;;5070979;28;20029;-58
2022/08/02 02:29:05;;;;;;;1.45;1.35;;;15.60;99.90;;;;;;5060076;28;20029;-58
2022/08/02 02:31:35;;;;;;;2.70;2.10;;;15.70;99.90;;;;;;5051734;28;20501;-58
2022/08/02 02:34:19;;;;;;;4.15;1.80;;;15.60;99.90;;;;;;5049039;28;20031;-58
2022/08/02 02:36:47;;;;;;;2.65;2.00;;;15.60;99.90;;;;;;5031516;28;20030;-60
2022/08/02 02:39:14;;;;;;;3.03;1.98;;;15.60;99.90;;;;;;5068963;28;20290;-61
2022/08/02 02:41:42;;;;;;;2.33;2.13;;;15.60;99.90;;;;;;5051529;28;20123;-60
2022/08/02 02:44:12;;;;;;;3.67;2.00;;;15.60;99.90;;;;;;5068966;28;20554;-61
2022/08/02 02:46:38;;;;;;;5.28;2.17;;;15.60;99.90;;;;;;5051217;28;20034;-61
2022/08/02 02:49:05;;;;;;;4.65;2.50;;;15.60;99.90;;;;;;5067263;28;20044;-61
2022/08/02 02:51:32;;;;;;;2.20;2.00;;;15.60;99.90;;;;;;5071321;28;20051;-61
2022/08/02 02:53:58;;;;;;;2.97;1.80;;;15.60;99.90;;;;;;5058212;28;20514;-61
2022/08/02 02:56:24;;;;;;;3.58;2.22;;;15.60;99.90;;;;;;5050195;28;20029;-61
2022/08/02 02:58:51;;;;;;;2.88;2.20;;;15.60;99.90;;;;;;5068395;28;20044;-61
2022/08/02 03:01:32;;;;;;;3.58;2.53;;;15.60;99.90;;;;;;5071189;28;20023;-61
2022/08/02 03:04:05;;;;;;;2.17;1.98;;;15.60;99.90;;;;;;5046063;28;20028;-61
2022/08/02 03:06:31;;;;;;;3.75;2.35;;;15.60;99.90;;;;;;5050800;28;20029;-61
2022/08/02 03:08:57;;;;;;;2.63;2.40;;;15.60;99.90;;;;;;5068227;28;20034;-61
2022/08/02 03:11:28;;;;;;;3.33;2.25;;;15.60;99.90;;;;;;5051285;28;20021;-61
2022/08/02 03:13:59;;;;;;;2.67;2.42;;;15.70;99.90;;;;;;5057615;28;20092;-61
2022/08/02 03:16:27;;;;;;;2.05;1.85;;;15.70;99.90;;;;;;5030877;28;20202;-61
2022/08/02 03:18:54;;;;;;;3.25;2.00;;;15.70;99.90;;;;;;5067317;28;20035;-60
2022/08/02 03:21:20;;;;;;;2.40;2.20;;;15.80;99.90;;;;;;5069346;28;20400;-59
2022/08/02 03:23:46;;;;;;;2.08;1.98;;;15.80;99.90;;;;;;5055527;28;20024;-58
2022/08/02 03:26:12;;;;;;;2.20;2.00;;;15.80;99.90;;;;;;5070454;28;20082;-59
2022/08/02 03:28:38;;;;;;;3.97;2.00;;;15.80;99.90;;;;;;5054004;28;20051;-58
2022/08/02 03:31:03;;;;;;;12.30;2.83;;;15.80;99.90;;;;;;5070299;28;20052;-59
2022/08/02 03:33:30;;;;;;;2.88;2.05;;;15.80;99.90;;;;;;5052192;28;20547;-59
2022/08/02 03:36:05;;;;;;;4.65;2.25;;;15.80;99.90;;;;;;5070331;28;20502;-58
2022/08/02 03:38:32;;;;;;;4.20;2.40;;;15.80;99.90;;;;;;5035778;28;20102;-58
2022/08/02 03:41:00;;;;;;;3.00;1.90;;;15.80;99.90;;;;;;5070192;28;20021;-58
2022/08/02 03:43:27;;;;;;;3.10;2.08;;;15.90;99.90;;;;;;5051311;28;20020;-59
2022/08/02 03:45:53;;;;;;;2.05;1.92;;;15.90;99.90;;;;;;5068843;28;20328;-58
2022/08/02 03:48:19;;;;;;;2.53;2.10;;;15.90;99.90;;;;;;5050583;28;20263;-58
2022/08/02 03:50:46;;;;;;;4.57;2.03;;;15.90;99.90;;;;;;5069791;28;20037;-58
2022/08/02 03:53:14;;;;;;;2.97;1.98;;;16.00;99.90;;;;;;5049106;28;20397;-58
2022/08/02 03:55:40;;;;;;;3.20;2.22;;;16.00;99.90;;;;;;5070010;28;20028;-58
2022/08/02 03:58:05;;;;;;;3.83;2.17;;;16.00;99.90;;;;;;5050319;28;20036;-58
2022/08/02 04:00:31;;;;;;;3.85;1.98;;;16.00;99.90;;;;;;5067787;28;20040;-58
2022/08/02 04:02:56;;;;;;;3.55;2.22;;;16.00;99.90;;;;;;5050293;28;20036;-58
2022/08/02 04:05:22;;;;;;;2.58;1.77;;;16.10;99.90;;;;;;5047656;28;20079;-58
2022/08/02 04:07:49;;;;;;;4.22;1.90;;;16.10;99.90;;;;;;5069060;28;20028;-58
2022/08/02 04:10:15;;;;;;;4.05;2.00;;;16.20;99.90;;;;;;5048271;28;20044;-59
2022/08/02 04:12:40;;;;;;;3.90;1.70;;;16.30;99.90;;;;;;5069008;28;20385;-57
2022/08/02 04:15:07;;;;;;;4.30;1.67;;;16.30;99.90;;;;;;5042090;28;20036;-58
2022/08/02 04:17:37;;;;;;;2.20;1.83;;;16.40;99.90;;;;;;5068871;28;20435;-59
2022/08/02 04:20:13;;;;;;;2.92;2.20;;;16.50;99.70;;;;;;5043354;28;20037;-58
2022/08/02 04:22:45;;;;;;;2.88;1.63;;;16.60;99.20;;;;;;5029652;28;20029;-58
2022/08/02 04:25:11;;;;;;;4.60;2.00;;;16.70;98.50;;;;;;5044079;28;20056;-59
2022/08/02 04:27:39;;;;;;;4.75;1.70;;;17.00;97.60;;;;;;5068819;28;20496;-59
2022/08/02 04:30:06;;;;;;;4.72;2.08;;;17.20;96.60;;;;;;5047891;28;20106;-59
2022/08/02 04:32:32;;;;;;;3.97;2.08;;;17.40;95.40;;;;;;5068977;28;20033;-59
2022/08/02 04:34:58;;;;;;;2.22;1.40;;;17.90;94.10;;;;;;5048023;28;20358;-59
2022/08/02 04:37:25;;;;;;;3.20;1.88;;;18.50;91.90;;;;;;5068719;28;20031;-59
2022/08/02 04:39:50;;;;;;;4.95;1.50;;;19.30;89.90;;;;;;5047613;28;20071;-59
2022/08/02 04:42:21;;;;;;;2.60;1.42;;;20.10;84.00;;;;;;5068639;28;20660;-59
2022/08/02 04:44:46;;;;;;;2.95;1.58;;;20.40;82.40;;;;;;5046975;28;20032;-58
2022/08/02 04:47:11;;;;;;;1.63;1.30;;;20.40;81.00;;;;;;5068458;28;20051;-59
2022/08/02 04:49:37;;;;;;;5.03;1.80;;;20.70;78.00;;;;;;5058663;28;20136;-58
2022/08/02 04:52:03;;;;;;;3.60;1.65;;;20.70;76.50;;;;;;5049593;28;20033;-59
2022/08/02 04:54:28;;;;;;;5.18;1.50;;;20.60;76.20;;;;;;5066401;28;20452;-59
2022/08/02 04:56:53;;;;;;;4.68;1.80;;;20.60;76.50;;;;;;5049557;28;20108;-59
2022/08/02 04:59:19;;;;;;;3.75;1.77;;;20.70;75.10;;;;;;5066297;28;20389;-59
2022/08/02 05:01:45;;;;;;;3.55;2.05;;;20.90;72.70;;;;;;5049450;28;20041;-59
2022/08/02 05:04:10;;;;;;;6.53;2.17;;;21.00;69.00;;;;;;5066481;28;20529;-59
2022/08/02 05:06:36;;;;;;;3.00;1.48;;;21.10;69.70;;;;;;5068959;28;20036;-60
2022/08/02 05:09:01;;;;;;;4.22;1.70;;;21.20;68.00;;;;;;5053014;28;20029;-59
2022/08/02 05:11:27;;;;;;;4.60;1.67;;;21.30;67.30;;;;;;5069056;28;20024;-59
2022/08/02 05:13:52;;;;;;;2.83;1.75;;;21.30;65.20;;;;;;5045363;28;20264;-59
2022/08/02 05:16:17;;;;;;;3.58;1.40;;;21.30;63.30;;;;;;5068299;28;20488;-59
2022/08/02 05:18:43;;;;;;;4.28;1.58;;;21.60;62.70;;;;;;5050172;28;20612;-59
2022/08/02 05:21:09;;;;;;;1.83;1.40;;;21.70;61.30;;;;;;5068773;28;20070;-59
2022/08/02 05:23:34;;;;;;;3.35;1.20;;;21.70;59.70;;;;;;5048957;28;20033;-59
2022/08/02 05:26:00;;;;;;;4.38;1.92;;;21.80;57.60;;;;;;5068838;28;20036;-59
2022/08/02 05:28:25;;;;;;;5.03;1.73;;;21.80;56.70;;;;;;5049334;28;20444;-59
2022/08/02 05:30:51;;;;;;;5.10;1.65;;;21.70;56.40;;;;;;5048745;28;20043;-59
2022/08/02 05:33:17;;;;;;;3.25;1.27;;;22.30;53.40;;;;;;5067989;28;20029;-59
2022/08/02 05:35:42;;;;;;;2.67;1.55;;;22.30;52.70;;;;;;5047404;28;20473;-59
2022/08/02 05:38:08;;;;;;;3.65;1.52;;;22.30;50.10;;;;;;5067824;28;20048;-59
2022/08/02 05:40:33;;;;;;;2.70;1.17;;;22.40;48.80;;;;;;5047309;28;20025;-59
2022/08/02 05:42:58;;;;;;;4.25;1.60;;;23.40;46.60;;;;;;5067855;28;20039;-59
2022/08/02 05:45:24;;;;;;;2.88;1.42;;;23.40;45.60;;;;;;5047312;28;20033;-59
2022/08/02 05:47:50;;;;;;;3.17;1.63;;;23.80;43.90;;;;;;5067752;28;20033;-59
2022/08/02 05:50:16;;;;;;;4.05;1.10;;;25.10;39.20;;;;;;5047141;28;20112;-59
2022/08/02 05:52:59;;;;;;;3.50;1.60;;;25.20;37.30;;;;;;5068010;28;20167;-58
2022/08/02 05:55:33;;;;;;;5.63;1.67;;;25.20;34.50;;;;;;5042456;28;20025;-59
2022/08/02 05:58:12;;;;;;;3.17;1.75;;;25.90;29.60;;;;;;5032386;28;20291;-59
2022/08/02 06:00:40;;;;;;;2.28;1.27;;;26.90;28.80;;;;;;5047760;28;20082;-59
2022/08/02 06:03:25;;;;;;;2.40;1.33;;;27.50;28.30;;;;;;5071727;28;20043;-59
2022/08/02 06:06:00;;;;;;;8.13;1.40;;;27.00;19.30;;;;;;5050622;28;20040;-59
2022/08/02 06:08:51;;;;;;;3.40;1.17;;;26.10;25.50;;;;;;5032516;28;20222;-59
2022/08/02 06:11:20;;;;;;;3.55;1.10;;;25.80;26.10;;;;;;5031749;28;20042;-45
2022/08/02 06:13:46;;;;;;;2.13;1.30;;;25.80;27.00;;;;;;5055897;28;20021;-45
2022/08/02 06:16:12;;;;;;;7.10;1.25;;;25.70;26.20;;;;;;5051934;28;20032;-45
2022/08/02 06:18:40;;;;;;;2.80;1.27;;;26.00;25.70;;;;;;5069180;28;20041;-47
2022/08/02 06:21:07;;;;;;;3.10;1.33;;;25.90;25.10;;;;;;5071775;28;20031;-45
2022/08/02 06:23:33;;;;;;;3.60;1.30;;;25.40;23.80;;;;;;5052163;28;20025;-45
2022/08/02 06:25:59;;;;;;;2.72;1.30;;;25.00;24.20;;;;;;5069426;28;20467;-45
2022/08/02 06:28:28;;;;;;;3.58;1.48;;;25.20;23.40;;;;;;5052176;28;20572;-45
2022/08/02 06:30:55;;;;;;;3.55;1.38;;;25.40;22.50;;;;;;5050956;28;20025;-45
2022/08/02 06:33:20;;;;;;;4.40;1.40;;;25.50;22.80;;;;;;5071041;28;20051;-45
2022/08/02 06:35:51;;;;;;;4.13;1.33;;;25.50;23.20;;;;;;5050184;28;20485;-46
2022/08/02 06:38:22;;;;;;;3.03;1.13;;;25.40;22.70;;;;;;5031674;28;20030;-45
2022/08/02 06:41:05;;;;;;;2.83;1.20;;;25.70;22.40;;;;;;5047279;28;20044;-45
2022/08/02 06:43:53;;;;;;;3.45;1.13;;;26.70;19.10;;;;;;5031591;28;20032;-46
2022/08/02 06:46:19;;;;;;;3.42;1.00;;;28.80;10.90;;;;;;5031530;28;20120;-47
2022/08/02 06:48:45;;;;;;;3.55;1.23;;;29.60;15.90;;;;;;5068158;28;20516;-46
2022/08/02 06:51:11;;;;;;;4.47;1.00;;;29.20;15.30;;;;;;5071322;28;20166;-48
2022/08/02 06:53:37;;;;;;;2.92;1.00;;;29.10;14.50;;;;;;5051579;28;20191;-45
2022/08/02 06:56:03;;;;;;;1.50;0.90;;;30.00;12.60;;;;;;5049446;28;20164;-47
2022/08/02 06:58:28;;;;;;;8.50;1.60;;;31.70;10.40;;;;;;5070347;28;20040;-46
2022/08/02 07:00:55;;;;;;;1.60;0.95;;;33.20;7.90;;;;;;5049561;28;20548;-48
2022/08/02 07:03:21;;;;;;;5.72;1.20;;;34.50;5.40;;;;;;5070797;28;20029;-46
2022/08/02 07:05:47;;;;;;;2.97;1.17;;;34.40;3.70;;;;;;5049587;28;20041;-47
2022/08/02 07:08:16;;;;;;;1.73;1.02;;;33.70;3.90;;;;;;5069760;28;20105;-45
2022/08/02 07:10:42;;;;;;;2.45;0.90;;;32.60;1.20;;;;;;5049460;28;20112;-46
2022/08/02 07:13:08;;;;;;;2.97;1.15;;;31.50;4.10;;;;;;5064240;28;20055;-46
2022/08/02 07:15:33;;;;;;;5.35;1.10;;;30.30;4.20;;;;;;5049054;28;20488;-45
2022/08/02 07:17:59;;;;;;;2.70;1.17;;;29.40;4.90;;;;;;5069895;28;20032;-45
2022/08/02 07:20:24;;;;;;;2.83;0.98;;;28.70;5.30;;;;;;5049507;28;20025;-47
2022/08/02 07:22:50;;;;;;;4.53;1.05;;;28.30;5.40;;;;;;5069799;28;20040;-46
2022/08/02 07:25:15;;;;;;;4.75;1.20;;;27.90;5.40;;;;;;5049356;28;20033;-46
2022/08/02 07:27:41;;;;;;;4.60;1.30;;;27.60;5.70;;;;;;5069840;28;20396;-46
2022/08/02 07:30:07;;;;;;;4.93;1.40;;;27.50;5.70;;;;;;5059678;28;20071;-46
2022/08/02 07:32:33;;;;;;;4.20;1.13;;;27.50;5.00;;;;;;5050852;28;20025;-45
2022/08/02 07:35:00;;;;;;;5.03;1.30;;;28.20;4.70;;;;;;5067767;28;20024;-45
2022/08/02 07:37:30;;;;;;;1.90;0.77;;;29.90;3.10;;;;;;5050651;28;20021;-46
2022/08/02 07:39:56;;;;;;;4.00;1.00;;;31.60;1.00;;;;;;5068130;28;20518;-45
2022/08/02 07:42:22;;;;;;;3.50;0.90;;;33.10;1.00;;;;;;5050825;28;20072;-48
2022/08/02 07:44:47;;;;;;;2.38;0.90;;;34.20;1.00;;;;;;5067555;28;20056;-45
2022/08/02 07:47:13;;;;;;;1.90;0.90;;;35.00;1.00;;;;;;5070194;28;20472;-45
2022/08/02 07:49:38;;;;;;;1.67;0.90;;;35.80;1.00;;;;;;5050340;28;20029;-50
2022/08/02 07:52:04;;;;;;;3.53;1.10;;;36.70;1.00;;;;;;5069135;28;20404;-47
2022/08/02 07:54:29;;;;;;;4.50;0.90;;;37.40;1.00;;;;;;5053297;28;20404;-47
2022/08/02 07:56:55;;;;;;;1.33;1.00;;;37.90;1.00;;;;;;5069915;28;20028;-47
2022/08/02 07:59:21;;;;;;;1.73;0.90;;;37.60;1.00;;;;;;5051841;28;20033;-46
2022/08/02 08:01:48;;;;;;;2.45;1.02;;;37.10;1.00;;;;;;5069931;28;20021;-46
2022/08/02 08:04:16;;;;;;;1.95;1.00;;;37.00;1.00;;;;;;5050460;28;20131;-48
2022/08/02 08:06:42;;;;;;;4.53;1.25;;;37.30;1.00;;;;;;5069715;28;20057;-48
2022/08/02 08:09:11;;;;;;;1.67;0.88;;;37.40;1.00;;;;;;5049796;28;20033;-48
2022/08/02 08:11:36;;;;;;;4.25;1.05;;;37.30;1.00;;;;;;5069775;28;20315;-47
2022/08/02 08:14:03;;;;;;;2.95;1.20;;;37.30;1.00;;;;;;5051309;28;20025;-47
2022/08/02 08:16:28;;;;;;;3.50;1.10;;;37.50;1.00;;;;;;5069682;28;20082;-48
2022/08/02 08:18:55;;;;;;;3.28;1.15;;;37.70;1.00;;;;;;5050025;28;20442;-47
2022/08/02 08:21:20;;;;;;;1.52;1.00;;;37.80;1.00;;;;;;5047867;28;20052;-46
2022/08/02 08:23:46;;;;;;;1.55;0.88;;;37.60;1.00;;;;;;5068784;28;20032;-48
2022/08/02 08:26:11;;;;;;;2.65;1.02;;;37.60;1.00;;;;;;5048329;28;20029;-49
2022/08/02 08:28:37;;;;;;;3.47;0.90;;;37.40;1.00;;;;;;5068695;28;20028;-46
2022/08/02 08:31:02;;;;;;;2.10;1.08;;;37.10;1.00;;;;;;5048169;28;20025;-50
2022/08/02 08:33:28;;;;;;;2.33;1.17;;;37.00;1.00;;;;;;5068748;28;20025;-46
2022/08/02 08:35:54;;;;;;;1.73;0.93;;;37.00;1.00;;;;;;5047929;28;20470;-48
2022/08/02 08:38:20;;;;;;;3.15;1.00;;;36.90;1.00;;;;;;5068647;28;20036;-49
2022/08/02 08:40:48;;;;;;;2.10;1.00;;;36.70;1.00;;;;;;5047907;28;20037;-52
2022/08/02 08:43:13;;;;;;;3.47;0.82;;;36.40;1.00;;;;;;5068838;28;20043;-47
2022/08/02 08:45:44;;;;;;;2.40;0.90;;;36.30;1.00;;;;;;5048208;28;20037;-47
2022/08/02 08:48:12;;;;;;;3.45;0.90;;;36.20;1.00;;;;;;5029271;28;20118;-46
2022/08/02 08:50:42;;;;;;;2.70;1.13;;;36.20;1.00;;;;;;5054017;28;20507;-46
2022/08/02 08:53:08;;;;;;;2.63;0.98;;;36.10;1.00;;;;;;5068891;28;20363;-48
2022/08/02 08:55:35;;;;;;;2.22;1.13;;;35.80;1.00;;;;;;5047769;28;20148;-46
2022/08/02 08:58:02;;;;;;;2.25;1.00;;;35.70;1.00;;;;;;5068332;28;20044;-46
2022/08/02 09:00:30;;;;;;;2.42;1.20;;;35.70;1.00;;;;;;5058463;28;20043;-47
2022/08/02 09:02:56;;;;;;;1.85;1.00;;;35.70;1.00;;;;;;5049010;28;20110;-50
2022/08/02 09:05:22;;;;;;;3.72;1.17;;;35.50;1.00;;;;;;5066561;28;20025;-48
2022/08/02 09:07:50;;;;;;;2.58;1.10;;;35.30;1.00;;;;;;5049299;28;20112;-46
2022/08/02 09:10:34;;;;;;;2.00;1.05;;;35.20;1.00;;;;;;5066591;28;20043;-48
2022/08/02 09:13:19;;;;;;;2.80;1.10;;;35.00;1.00;;;;;;5046459;28;20021;-48
2022/08/02 09:15:52;;;;;;;2.05;1.05;;;34.90;1.00;;;;;;5067012;28;20110;-47
2022/08/02 09:18:18;;;;;;;3.38;1.30;;;34.70;1.00;;;;;;5029012;28;20216;-50
2022/08/02 09:20:53;;;;;;;3.55;0.93;;;34.50;1.00;;;;;;5053180;28;20128;-49
2022/08/02 09:23:20;;;;;;;1.88;0.98;;;34.30;1.00;;;;;;5068500;28;20048;-47
2022/08/02 09:25:58;;;;;;;2.78;1.00;;;34.10;1.00;;;;;;5047222;28;20551;-46
2022/08/02 09:28:31;;;;;;;4.07;1.20;;;33.90;1.00;;;;;;5028862;28;20330;-49
2022/08/02 09:31:06;;;;;;;2.58;0.98;;;33.90;1.00;;;;;;5041683;28;20566;-48
2022/08/02 09:33:32;;;;;;;2.60;1.13;;;33.80;1.00;;;;;;5032875;28;20030;-48
2022/08/02 09:36:00;;;;;;;1.48;0.93;;;33.70;1.00;;;;;;5055576;28;20033;-49
2022/08/02 09:38:26;;;;;;;2.40;0.85;;;33.50;1.00;;;;;;5072159;28;20025;-46
2022/08/02 09:40:52;;;;;;;2.78;1.00;;;33.20;1.00;;;;;;5051011;28;20393;-47
2022/08/02 09:43:19;;;;;;;6.45;1.70;;;33.00;1.00;;;;;;5071816;28;20021;-47
2022/08/02 09:45:44;;;;;;;1.00;0.85;;;33.00;1.00;;;;;;5051002;28;20056;-48
2022/08/02 09:48:10;;;;;;;3.00;1.13;;;32.80;1.00;;;;;;5071574;28;20068;-50
2022/08/02 09:50:40;;;;;;;2.33;1.10;;;32.70;1.00;;;;;;5061305;28;20057;-47
2022/08/02 09:53:12;;;;;;;2.15;1.15;;;32.40;1.00;;;;;;5052626;28;20025;-46
2022/08/02 09:55:39;;;;;;;1.55;1.00;;;32.30;1.00;;;;;;5070382;28;20382;-47
2022/08/02 09:58:21;;;;;;;2.25;1.02;;;32.20;1.00;;;;;;5052518;28;20078;-48
2022/08/02 10:00:54;;;;;;;3.58;1.20;;;32.00;1.00;;;;;;5058448;28;20044;-46
2022/08/02 10:03:19;;;;;;;4.18;1.27;;;32.00;1.00;;;;;;5071688;28;20055;-47
2022/08/02 10:05:50;;;;;;;3.80;1.40;;;31.80;1.00;;;;;;5050957;28;20369;-48
2022/08/02 10:08:16;;;;;;;5.13;1.50;;;31.80;1.00;;;;;;5071620;28;20036;-45
2022/08/02 10:10:43;;;;;;;3.42;1.27;;;31.70;1.00;;;;;;5061561;28;20032;-49
2022/08/02 10:13:10;;;;;;;3.90;1.10;;;31.60;1.00;;;;;;5048135;28;20470;-46
2022/08/02 10:15:36;;;;;;;2.53;1.27;;;31.40;1.00;;;;;;5070131;28;20172;-46
2022/08/02 10:18:04;;;;;;;1.42;1.00;;;31.20;1.00;;;;;;5052210;28;20032;-46
2022/08/02 10:20:35;;;;;;;2.67;1.23;;;31.10;1.00;;;;;;5069575;28;20417;-45
2022/08/02 10:23:02;;;;;;;2.78;1.27;;;31.00;1.00;;;;;;5031840;28;20562;-46
2022/08/02 10:25:29;;;;;;;2.92;1.23;;;30.70;1.00;;;;;;5068914;28;20116;-46
2022/08/02 10:27:56;;;;;;;2.17;1.25;;;30.40;1.00;;;;;;5051864;28;20029;-47
2022/08/02 10:30:23;;;;;;;2.38;1.10;;;30.10;1.00;;;;;;5069157;28;20048;-47
2022/08/02 10:32:50;;;;;;;1.83;0.85;;;30.10;1.00;;;;;;5071530;28;20115;-45
2022/08/02 10:35:19;;;;;;;4.57;1.33;;;30.00;1.00;;;;;;5055166;28;20036;-47
2022/08/02 10:37:49;;;;;;;1.73;0.88;;;30.00;1.00;;;;;;5071592;28;20020;-45
2022/08/02 10:40:27;;;;;;;3.33;1.27;;;29.90;1.00;;;;;;5055668;28;20077;-45
2022/08/02 10:42:58;;;;;;;2.65;1.40;;;29.90;1.00;;;;;;5070476;28;20138;-46
2022/08/02 10:45:24;;;;;;;2.33;1.15;;;29.60;1.00;;;;;;5044322;28;20032;-45
2022/08/02 10:48:09;;;;;;;2.67;1.45;;;29.60;1.00;;;;;;5071197;28;20091;-47
2022/08/02 10:50:51;;;;;;;2.38;1.02;;;29.60;1.00;;;;;;5046704;28;20101;-46
2022/08/02 10:53:35;;;;;;;2.80;1.05;;;29.50;1.00;;;;;;5031647;28;20033;-46
2022/08/02 10:56:03;;;;;;;3.17;1.10;;;29.40;1.00;;;;;;5053787;28;20041;-46
2022/08/02 10:58:31;;;;;;;4.70;1.40;;;29.30;1.00;;;;;;5051166;28;20397;-48
2022/08/02 11:01:02;;;;;;;2.65;1.10;;;29.30;1.00;;;;;;5057400;28;20032;-48
2022/08/02 11:03:27;;;;;;;2.63;1.08;;;29.40;1.00;;;;;;5031040;28;20029;-46
2022/08/02 11:06:07;;;;;;;2.85;0.98;;;29.40;1.00;;;;;;5067516;28;20572;-47
2022/08/02 11:08:34;;;;;;;2.53;1.10;;;29.40;1.00;;;;;;5051028;28;20516;-45
2022/08/02 11:11:13;;;;;;;1.85;1.02;;;29.40;1.00;;;;;;5057032;28;20429;-48
2022/08/02 11:13:58;;;;;;;1.85;1.17;;;29.30;1.00;;;;;;5040851;28;20031;-45
2022/08/02 11:16:56;;;;;;;3.03;1.10;;;29.20;1.00;;;;;;5049479;28;20029;-46
2022/08/02 11:19:27;;;;;;;3.65;1.00;;;29.20;1.00;;;;;;5030786;28;20395;-45
2022/08/02 11:22:10;;;;;;;1.30;0.95;;;29.10;1.00;;;;;;5049683;28;20029;-46
2022/08/02 11:24:38;;;;;;;2.75;0.90;;;29.00;1.00;;;;;;5031212;28;20371;-47
2022/08/02 11:27:05;;;;;;;2.88;1.10;;;28.80;1.00;;;;;;5030660;28;20442;-46
2022/08/02 11:29:39;;;;;;;2.65;1.17;;;28.60;1.00;;;;;;5069654;28;20066;-46
2022/08/02 11:32:16;;;;;;;1.58;0.90;;;28.60;1.00;;;;;;5070443;28;20032;-46
2022/08/02 11:34:44;;;;;;;3.10;1.17;;;28.50;1.10;;;;;;5029078;28;20105;-47
2022/08/02 11:37:10;;;;;;;1.35;0.77;;;28.30;1.00;;;;;;5070275;28;20383;-46
2022/08/02 11:39:35;;;;;;;2.67;1.00;;;28.20;1.00;;;;;;5050695;28;20082;-45
2022/08/02 11:42:01;;;;;;;3.80;0.95;;;28.10;1.00;;;;;;5048399;28;20471;-45
2022/08/02 11:44:29;;;;;;;3.72;1.13;;;27.80;1.00;;;;;;5069474;28;20032;-45
2022/08/02 11:47:00;;;;;;;2.85;0.90;;;27.80;1.40;;;;;;5048573;28;20086;-46
2022/08/02 11:49:25;;;;;;;1.08;0.90;;;27.80;1.60;;;;;;5041375;28;20059;-45
2022/08/02 11:51:56;;;;;;;1.25;0.80;;;27.70;1.40;;;;;;5068104;28;20028;-46
2022/08/02 11:54:28;;;;;;;2.75;1.23;;;27.70;1.40;;;;;;5029958;28;20021;-45
2022/08/02 11:56:53;;;;;;;2.30;1.30;;;27.60;2.40;;;;;;5049766;28;20029;-46
2022/08/02 11:59:19;;;;;;;3.72;1.20;;;27.50;1.70;;;;;;5069261;28;20158;-45
2022/08/02 12:01:44;;;;;;;2.38;1.23;;;27.50;1.70;;;;;;5048730;28;20044;-47
2022/08/02 12:04:10;;;;;;;2.95;1.20;;;27.50;1.90;;;;;;5069115;28;20029;-46
2022/08/02 12:06:35;;;;;;;1.45;1.20;;;27.50;1.80;;;;;;5048745;28;20507;-48
2022/08/02 12:09:07;;;;;;;1.23;0.90;;;27.40;1.60;;;;;;5068995;28;20484;-60
2022/08/02 12:11:33;;;;;;;3.60;1.50;;;27.20;2.10;;;;;;5048008;28;20031;-46
2022/08/02 12:13:59;;;;;;;1.75;1.00;;;26.90;1.90;;;;;;5055707;28;20028;-46
2022/08/02 12:19:22;;;;;;;2.22;0.90;;;27.00;2.80;;;;;;5029982;28;20095;-47
2022/08/02 12:22:05;;;;;;;2.28;0.90;;;27.00;2.00;;;;;;5050853;28;20040;-48
2022/08/02 12:24:30;;;;;;;3.50;1.20;;;27.00;2.30;;;;;;5029624;28;20029;-45
2022/08/02 12:26:56;;;;;;;2.97;1.17;;;26.90;2.40;;;;;;5049001;28;20507;-45
2022/08/02 12:29:30;;;;;;;4.15;0.90;;;26.90;2.30;;;;;;5068631;28;20029;-45
2022/08/02 12:31:55;;;;;;;2.58;0.95;;;27.10;2.30;;;;;;5047807;28;20037;-46
2022/08/02 12:34:22;;;;;;;3.53;1.13;;;27.10;2.20;;;;;;5068632;28;20035;-49
2022/08/02 12:37:09;;;;;;;2.85;1.00;;;27.10;2.10;;;;;;5047787;28;20055;-48
2022/08/02 12:39:43;;;;;;;3.00;1.05;;;27.20;2.90;;;;;;5068910;28;20021;-47
2022/08/02 12:42:11;;;;;;;2.95;1.05;;;27.20;1.90;;;;;;5047608;28;20036;-47
2022/08/02 12:44:48;;;;;;;2.78;1.30;;;27.00;1.80;;;;;;5068662;28;20032;-46
2022/08/02 12:47:14;;;;;;;2.85;1.30;;;26.80;2.00;;;;;;5046610;28;20036;-45
2022/08/02 12:49:39;;;;;;;2.80;1.10;;;26.80;2.00;;;;;;5060371;28;20425;-48
2022/08/02 12:52:23;;;;;;;1.45;1.25;;;26.80;1.90;;;;;;5048746;28;20036;-49
2022/08/02 12:54:49;;;;;;;2.28;0.95;;;26.80;3.00;;;;;;5068323;28;20519;-45
2022/08/02 12:57:17;;;;;;;1.40;0.70;;;26.90;2.10;;;;;;5047738;28;20033;-45
2022/08/02 12:59:49;;;;;;;4.03;0.98;;;26.90;2.00;;;;;;5068603;28;20052;-45
2022/08/02 13:02:15;;;;;;;1.30;0.95;;;26.90;1.40;;;;;;5046285;28;20044;-47
2022/08/02 13:04:41;;;;;;;3.72;1.33;;;26.90;1.00;;;;;;5068248;28;20227;-45
2022/08/02 13:07:07;;;;;;;2.05;1.00;;;26.90;1.50;;;;;;5046927;28;20029;-47